createdAt,value
2024-01-29T00:01:07.465Z,7.18
2024-01-29T00:03:34.870Z,7.00
2024-01-29T00:06:02.341Z,7.25
2024-01-29T00:08:29.835Z,6.30
2024-01-29T00:10:57.099Z,6.53
2024-01-29T00:13:25.003Z,6.72
2024-01-29T00:15:52.217Z,6.10
2024-01-29T00:18:19.481Z,6.57
2024-01-29T00:20:46.741Z,6.30
2024-01-29T00:23:13.897Z,5.47
2024-01-29T00:25:44.660Z,5.80
2024-01-29T00:28:12.197Z,6.05
2024-01-29T00:30:39.418Z,6.05
2024-01-29T00:33:06.672Z,6.13
2024-01-29T00:35:33.884Z,5.85
2024-01-29T00:38:00.982Z,4.90
2024-01-29T00:40:29.210Z,6.20
2024-01-29T00:42:56.455Z,6.20
2024-01-29T00:45:23.909Z,5.60
2024-01-29T00:47:51.147Z,5.53
2024-01-29T00:50:18.681Z,5.90
2024-01-29T00:52:45.789Z,5.80
2024-01-29T00:55:13.793Z,5.82
2024-01-29T00:57:41.255Z,5.82
2024-01-29T01:00:09.841Z,6.13
2024-01-29T01:02:37.062Z,5.18
2024-01-29T01:05:05.314Z,6.45
2024-01-29T01:07:32.694Z,6.38
2024-01-29T01:09:59.885Z,6.10
2024-01-29T01:12:27.092Z,5.95
2024-01-29T01:14:55.616Z,5.80
2024-01-29T01:17:22.770Z,6.10
2024-01-29T01:19:50.090Z,5.82
2024-01-29T01:22:17.407Z,5.53
2024-01-29T01:24:47.822Z,6.13
2024-01-29T01:32:13.396Z,5.57
2024-01-29T01:34:40.679Z,6.00
2024-01-29T01:37:07.831Z,6.18
2024-01-29T01:39:34.936Z,6.40
2024-01-29T01:42:05.736Z,7.10
2024-01-29T01:44:32.984Z,6.55
2024-01-29T01:47:00.918Z,5.75
2024-01-29T01:49:32.095Z,6.50
2024-01-29T01:52:02.752Z,6.35
2024-01-29T01:54:30.055Z,6.47
2024-01-29T01:56:58.371Z,5.90
2024-01-29T01:59:25.543Z,6.03
2024-01-29T02:01:53.845Z,6.70
2024-01-29T02:04:21.190Z,6.85
2024-01-29T02:06:48.760Z,6.60
2024-01-29T02:09:15.900Z,6.30
2024-01-29T02:11:43.000Z,6.05
2024-01-29T02:14:11.666Z,6.75
2024-01-29T02:16:38.830Z,6.90
2024-01-29T02:19:11.230Z,6.85
2024-01-29T02:21:38.862Z,6.90
2024-01-29T02:24:06.045Z,7.00
2024-01-29T02:26:33.103Z,7.28
2024-01-29T02:29:00.235Z,7.13
2024-01-29T02:31:27.872Z,7.60
2024-01-29T02:33:55.077Z,8.23
2024-01-29T02:36:22.364Z,7.47
2024-01-29T02:38:49.754Z,6.85
2024-01-29T02:41:16.903Z,7.15
2024-01-29T02:43:44.333Z,7.65
2024-01-29T02:46:11.432Z,7.88
2024-01-29T02:48:39.332Z,7.88
2024-01-29T02:51:07.442Z,7.82
2024-01-29T02:53:34.654Z,7.35
2024-01-29T02:56:01.785Z,7.82
2024-01-29T02:58:33.118Z,7.40
2024-01-29T03:01:00.301Z,7.80
2024-01-29T03:03:27.823Z,8.05
2024-01-29T03:05:55.067Z,7.30
2024-01-29T03:08:22.384Z,7.63
2024-01-29T03:10:49.528Z,8.80
2024-01-29T03:13:16.661Z,8.02
2024-01-29T03:15:46.367Z,8.00
2024-01-29T03:18:16.426Z,7.50
2024-01-29T03:20:43.785Z,8.98
2024-01-29T03:23:11.750Z,8.60
2024-01-29T03:25:38.945Z,8.48
2024-01-29T03:28:06.717Z,7.47
2024-01-29T03:30:33.818Z,9.23
2024-01-29T03:33:01.191Z,8.30
2024-01-29T03:35:28.823Z,8.70
2024-01-29T03:37:55.927Z,8.43
2024-01-29T03:40:24.565Z,8.00
2024-01-29T03:42:51.720Z,8.63
2024-01-29T03:45:18.891Z,8.43
2024-01-29T03:47:45.977Z,8.43
2024-01-29T03:50:13.257Z,8.52
2024-01-29T03:52:40.457Z,9.20
2024-01-29T03:55:08.038Z,8.20
2024-01-29T03:57:36.611Z,9.80
2024-01-29T04:00:04.255Z,9.02
2024-01-29T04:02:38.592Z,8.93
2024-01-29T04:05:06.364Z,9.70
2024-01-29T04:07:33.891Z,9.13
2024-01-29T04:10:01.140Z,9.57
2024-01-29T04:12:29.264Z,9.45
2024-01-29T04:14:56.446Z,8.73
2024-01-29T04:17:23.617Z,9.00
2024-01-29T04:19:51.106Z,8.63
2024-01-29T04:22:18.471Z,8.88
2024-01-29T04:24:45.648Z,10.15
2024-01-29T04:27:12.779Z,9.57
2024-01-29T04:29:39.955Z,8.57
2024-01-29T04:32:07.506Z,9.50
2024-01-29T04:34:34.794Z,8.80
2024-01-29T04:37:02.016Z,9.52
2024-01-29T04:39:29.948Z,10.20
2024-01-29T04:41:59.176Z,9.75
2024-01-29T04:44:26.472Z,9.48
2024-01-29T04:46:53.535Z,10.35
2024-01-29T04:49:20.785Z,9.15
2024-01-29T04:51:48.006Z,9.27
2024-01-29T04:54:15.121Z,9.93
2024-01-29T04:56:42.251Z,9.50
2024-01-29T04:59:09.350Z,9.35
2024-01-29T05:01:36.543Z,9.57
2024-01-29T05:04:03.894Z,10.88
2024-01-29T05:06:31.553Z,8.65
2024-01-29T05:09:02.219Z,10.07
2024-01-29T05:11:30.587Z,10.18
2024-01-29T05:13:58.020Z,9.57
2024-01-29T05:16:25.191Z,9.50
2024-01-29T05:18:52.406Z,9.45
2024-01-29T05:21:19.541Z,9.23
2024-01-29T05:23:46.603Z,8.85
2024-01-29T05:26:13.763Z,10.18
2024-01-29T05:28:43.257Z,10.13
2024-01-29T05:31:10.488Z,11.65
2024-01-29T05:33:37.867Z,10.20
2024-01-29T05:36:05.365Z,9.55
2024-01-29T05:38:36.666Z,10.98
2024-01-29T05:41:04.000Z,9.95
2024-01-29T05:43:31.102Z,11.70
2024-01-29T05:45:58.604Z,9.93
2024-01-29T05:48:25.985Z,11.00
2024-01-29T05:50:56.271Z,11.23
2024-01-29T05:53:24.812Z,10.73
2024-01-29T05:55:51.938Z,12.25
2024-01-29T05:58:19.223Z,11.10
2024-01-29T06:00:46.713Z,11.18
2024-01-29T06:03:14.296Z,11.40
2024-01-29T06:05:41.567Z,12.10
2024-01-29T06:08:08.910Z,12.00
2024-01-29T06:10:36.687Z,11.57
2024-01-29T06:13:04.021Z,10.77
2024-01-29T06:15:31.260Z,12.18
2024-01-29T06:18:01.143Z,12.23
2024-01-29T06:20:31.512Z,11.38
2024-01-29T06:25:29.067Z,11.10
2024-01-29T06:27:56.321Z,12.15
2024-01-29T06:30:23.618Z,11.50
2024-01-29T06:32:50.976Z,12.15
2024-01-29T06:35:20.020Z,11.82
2024-01-29T06:37:47.193Z,11.70
2024-01-29T06:40:14.620Z,11.68
2024-01-29T06:42:41.968Z,12.15
2024-01-29T06:45:09.652Z,10.88
2024-01-29T06:47:36.895Z,12.07
2024-01-29T06:50:04.509Z,12.25
2024-01-29T06:52:31.760Z,12.73
2024-01-29T06:55:02.809Z,12.25
2024-01-29T06:57:30.108Z,12.10
2024-01-29T06:59:59.619Z,12.45
2024-01-29T07:02:26.832Z,11.70
2024-01-29T07:04:55.603Z,11.90
2024-01-29T07:07:22.998Z,11.65
2024-01-29T07:09:54.782Z,12.02
2024-01-29T07:12:22.209Z,11.82
2024-01-29T07:14:50.479Z,12.25
2024-01-29T07:17:17.710Z,11.55
2024-01-29T07:19:46.691Z,12.00
2024-01-29T07:22:19.778Z,11.25
2024-01-29T07:24:47.513Z,12.02
2024-01-29T07:27:14.916Z,11.95
2024-01-29T07:29:42.102Z,12.35
2024-01-29T07:32:09.309Z,11.50
2024-01-29T07:34:37.920Z,12.02
2024-01-29T07:37:05.669Z,12.43
2024-01-29T07:39:33.656Z,11.90
2024-01-29T07:42:00.869Z,11.90
2024-01-29T07:44:29.651Z,13.20
2024-01-29T07:46:56.857Z,12.02
2024-01-29T07:49:25.193Z,12.40
2024-01-29T07:51:52.495Z,11.60
2024-01-29T07:54:19.685Z,10.38
2024-01-29T07:56:46.782Z,11.68
2024-01-29T07:59:13.942Z,10.25
2024-01-29T08:01:41.330Z,10.85
2024-01-29T08:04:41.736Z,10.02
2024-01-29T08:07:09.140Z,14.18
2024-01-29T08:09:49.507Z,11.48
2024-01-29T08:12:29.108Z,10.07
2024-01-29T08:18:17.738Z,10.25
2024-01-29T08:20:45.674Z,9.65
2024-01-29T08:23:13.050Z,10.23
2024-01-29T08:25:40.224Z,10.57
2024-01-29T08:28:20.828Z,11.38
2024-01-29T08:30:51.094Z,9.73
2024-01-29T08:33:18.693Z,8.68
2024-01-29T08:39:12.812Z,9.70
2024-01-29T08:41:43.198Z,9.18
2024-01-29T08:44:11.167Z,9.48
2024-01-29T08:46:38.459Z,9.50
2024-01-29T08:49:05.758Z,10.35
2024-01-29T08:51:36.651Z,9.48
2024-01-29T08:54:03.946Z,9.13
2024-01-29T08:56:34.220Z,8.45
2024-01-29T08:59:03.992Z,8.75
2024-01-29T09:01:33.725Z,8.48
2024-01-29T09:04:00.979Z,9.50
2024-01-29T09:06:31.250Z,8.68
2024-01-29T09:09:01.168Z,8.43
2024-01-29T09:11:28.702Z,9.18
2024-01-29T09:13:55.802Z,9.15
2024-01-29T09:16:22.927Z,8.73
2024-01-29T09:18:50.378Z,8.38
2024-01-29T09:21:17.566Z,8.77
2024-01-29T09:23:44.696Z,7.22
2024-01-29T09:26:12.128Z,7.60
2024-01-29T09:28:43.488Z,8.40
2024-01-29T09:31:11.207Z,7.82
2024-01-29T09:33:38.778Z,7.80
2024-01-29T09:36:06.360Z,7.80
2024-01-29T09:38:33.496Z,6.88
2024-01-29T09:41:00.695Z,6.53
2024-01-29T09:43:28.936Z,7.10
2024-01-29T09:45:56.290Z,6.90
2024-01-29T09:48:23.599Z,6.90
2024-01-29T09:50:50.880Z,6.45
2024-01-29T09:53:22.307Z,7.03
2024-01-29T09:55:49.740Z,7.10
2024-01-29T09:58:17.494Z,6.38
2024-01-29T10:00:44.685Z,6.13
2024-01-29T10:03:22.964Z,7.07
2024-01-29T10:05:50.475Z,6.43
2024-01-29T10:08:17.762Z,6.43
2024-01-29T10:10:44.865Z,7.10
2024-01-29T10:13:12.014Z,6.22
2024-01-29T10:15:39.521Z,5.97
2024-01-29T10:18:11.118Z,6.25
2024-01-29T10:20:38.641Z,6.53
2024-01-29T10:23:05.774Z,5.85
2024-01-29T10:25:35.664Z,5.72
2024-01-29T10:28:15.381Z,6.85
2024-01-29T10:30:42.751Z,6.30
2024-01-29T10:33:10.450Z,6.68
2024-01-29T10:35:38.404Z,6.35
2024-01-29T10:38:06.566Z,6.80
2024-01-29T10:40:34.480Z,6.45
2024-01-29T10:43:02.717Z,6.70
2024-01-29T10:45:30.150Z,7.18
2024-01-29T10:48:11.568Z,6.90
2024-01-29T10:50:39.100Z,6.70
2024-01-29T10:53:06.308Z,6.45
2024-01-29T10:55:33.410Z,5.90
2024-01-29T10:58:02.815Z,6.53
2024-01-29T11:00:30.422Z,5.18
2024-01-29T11:02:57.926Z,5.55
2024-01-29T11:05:25.573Z,4.85
2024-01-29T11:07:56.305Z,5.20
2024-01-29T11:10:28.237Z,5.93
2024-01-29T11:12:56.150Z,5.43
2024-01-29T11:15:23.517Z,6.53
2024-01-29T11:17:50.785Z,5.70
2024-01-29T11:20:19.333Z,5.55
2024-01-29T11:23:21.704Z,7.18
2024-01-29T11:26:18.584Z,7.38
2024-01-29T11:28:48.293Z,6.82
2024-01-29T11:31:15.838Z,6.85
2024-01-29T11:33:45.097Z,5.53
2024-01-29T11:36:15.817Z,14.02
2024-01-29T11:38:43.079Z,6.80
2024-01-29T11:41:13.911Z,6.65
2024-01-29T11:43:43.741Z,7.47
2024-01-29T11:46:13.101Z,7.45
2024-01-29T11:48:40.556Z,5.20
2024-01-29T11:51:07.866Z,5.90
2024-01-29T11:53:36.035Z,6.72
2024-01-29T11:56:03.437Z,5.32
2024-01-29T11:58:30.792Z,8.18
2024-01-29T12:01:08.340Z,7.85
2024-01-29T12:03:43.857Z,8.98
2024-01-29T12:06:16.945Z,9.77
2024-01-29T12:08:50.758Z,9.27
2024-01-29T12:11:25.467Z,10.57
2024-01-29T12:13:59.839Z,9.98
2024-01-29T12:16:27.058Z,7.40
2024-01-29T12:26:38.773Z,5.03
2024-01-29T12:29:46.870Z,6.07
2024-01-29T12:32:21.863Z,5.28
2024-01-29T12:34:51.563Z,4.50
2024-01-29T12:37:23.457Z,4.90
2024-01-29T12:40:00.544Z,5.18
2024-01-29T12:42:28.271Z,5.38
2024-01-29T12:44:56.655Z,5.70
2024-01-29T12:47:28.109Z,5.28
2024-01-29T12:50:13.518Z,4.85
2024-01-29T12:52:44.684Z,4.53
2024-01-29T12:55:43.835Z,4.85
2024-01-29T12:58:11.841Z,4.20
2024-01-29T13:00:45.060Z,4.53
2024-01-29T13:03:15.877Z,4.10
2024-01-29T13:06:16.484Z,4.75
2024-01-29T13:15:06.059Z,4.22
2024-01-29T13:18:07.556Z,4.78
2024-01-29T13:23:17.879Z,4.05
2024-01-29T13:25:46.082Z,4.47
2024-01-29T13:28:13.818Z,4.53
2024-01-29T13:30:44.929Z,4.30
2024-01-29T13:33:15.752Z,3.80
2024-01-29T13:35:52.502Z,4.28
2024-01-29T13:38:22.632Z,4.60
2024-01-29T13:40:50.220Z,4.78
2024-01-29T13:43:21.245Z,4.50
2024-01-29T13:45:52.037Z,4.45
2024-01-29T13:48:19.905Z,4.60
2024-01-29T13:50:47.158Z,4.50
2024-01-29T13:53:14.361Z,4.90
2024-01-29T13:55:41.551Z,5.35
2024-01-29T13:58:08.887Z,5.03
2024-01-29T14:00:38.866Z,5.28
2024-01-29T14:03:06.264Z,4.53
2024-01-29T14:05:33.600Z,4.70
2024-01-29T14:08:00.763Z,5.32
2024-01-29T14:10:30.573Z,6.30
2024-01-29T14:13:00.246Z,4.72
2024-01-29T14:15:28.014Z,4.35
2024-01-29T14:17:55.336Z,5.20
2024-01-29T14:20:22.774Z,5.85
2024-01-29T14:22:56.945Z,5.18
2024-01-29T14:25:25.347Z,5.00
2024-01-29T14:27:53.568Z,5.47
2024-01-29T14:30:23.423Z,4.85
2024-01-29T14:32:53.761Z,5.72
2024-01-29T14:37:49.217Z,5.28
2024-01-29T14:40:17.481Z,5.43
2024-01-29T14:42:44.711Z,5.70
2024-01-29T14:45:12.010Z,5.90
2024-01-29T14:47:39.457Z,5.75
2024-01-29T14:50:07.049Z,6.10
2024-01-29T14:52:34.263Z,5.82
2024-01-29T14:55:01.571Z,6.35
2024-01-29T14:57:31.558Z,5.60
2024-01-29T15:00:02.823Z,5.95
2024-01-29T15:02:30.396Z,6.10
2024-01-29T15:05:00.390Z,6.70
2024-01-29T15:07:30.190Z,6.75
2024-01-29T15:09:59.793Z,7.55
2024-01-29T15:12:31.508Z,7.70
2024-01-29T15:15:01.345Z,8.00
2024-01-29T15:17:31.607Z,8.13
2024-01-29T15:19:59.623Z,7.60
2024-01-29T15:22:26.994Z,7.63
2024-01-29T15:24:55.574Z,7.32
2024-01-29T15:27:22.737Z,7.57
2024-01-29T15:29:49.912Z,7.28
2024-01-29T15:32:16.990Z,6.90
2024-01-29T15:34:48.921Z,7.32
2024-01-29T15:37:17.128Z,6.72
2024-01-29T15:39:44.390Z,7.65
2024-01-29T15:42:18.081Z,6.68
2024-01-29T15:44:45.439Z,6.90
2024-01-29T15:47:12.828Z,6.57
2024-01-29T15:49:41.287Z,7.13
2024-01-29T15:52:08.876Z,7.38
2024-01-29T15:54:36.847Z,7.50
2024-01-29T15:57:07.903Z,6.93
2024-01-29T15:59:35.530Z,6.88
2024-01-29T16:02:09.984Z,7.38
2024-01-29T16:04:40.054Z,7.30
2024-01-29T16:07:07.884Z,7.72
2024-01-29T16:09:35.312Z,7.72
2024-01-29T16:12:02.770Z,7.95
2024-01-29T16:14:30.502Z,7.45
2024-01-29T16:17:00.033Z,7.32
2024-01-29T16:19:29.948Z,8.13
2024-01-29T16:21:58.922Z,7.28
2024-01-29T16:24:26.234Z,7.90
2024-01-29T16:26:53.818Z,8.82
2024-01-29T16:29:21.050Z,7.60
2024-01-29T16:31:54.317Z,7.75
2024-01-29T16:34:22.309Z,7.57
2024-01-29T16:36:50.068Z,8.63
2024-01-29T16:39:17.344Z,8.38
2024-01-29T16:41:44.630Z,7.10
2024-01-29T16:44:12.230Z,8.65
2024-01-29T16:46:45.529Z,8.57
2024-01-29T16:49:16.423Z,9.20
2024-01-29T16:51:43.875Z,8.20
2024-01-29T16:54:11.394Z,8.73
2024-01-29T16:56:44.139Z,8.85
2024-01-29T16:59:11.798Z,8.63
2024-01-29T17:01:40.000Z,8.45
2024-01-29T17:04:07.804Z,7.88
2024-01-29T17:06:35.680Z,8.50
2024-01-29T17:09:02.996Z,7.63
2024-01-29T17:11:30.816Z,8.63
2024-01-29T17:14:01.365Z,8.75
2024-01-29T17:16:34.112Z,7.72
2024-01-29T17:19:09.280Z,7.57
2024-01-29T17:22:10.730Z,8.63
2024-01-29T17:24:39.230Z,8.30
2024-01-29T17:30:45.605Z,9.13
2024-01-29T17:33:21.779Z,8.02
2024-01-29T17:35:59.192Z,8.02
2024-01-29T17:38:29.882Z,7.95
2024-01-29T17:40:59.982Z,8.25
2024-01-29T17:43:31.812Z,8.27
2024-01-29T17:46:09.485Z,8.48
2024-01-29T17:48:37.229Z,8.05
2024-01-29T17:51:05.290Z,8.25
2024-01-29T17:53:38.468Z,8.00
2024-01-29T17:56:06.595Z,9.02
2024-01-29T17:58:33.949Z,9.02
2024-01-29T18:01:30.808Z,8.82
2024-01-29T18:04:03.211Z,9.43
2024-01-29T18:10:11.624Z,10.18
2024-01-29T18:12:41.991Z,10.20
2024-01-29T18:15:09.541Z,9.45
2024-01-29T18:17:43.424Z,10.00
2024-01-29T18:20:14.577Z,10.52
2024-01-29T18:22:46.326Z,9.43
2024-01-29T18:25:20.713Z,10.15
2024-01-29T18:27:50.176Z,10.38
2024-01-29T18:36:55.148Z,9.30
2024-01-29T18:38:11.391Z,10.52
2024-01-29T18:40:39.626Z,10.25
2024-01-29T18:43:07.570Z,10.23
2024-01-29T18:45:39.626Z,10.10
2024-01-29T18:48:18.771Z,8.63
2024-01-29T18:50:49.385Z,9.57
2024-01-29T18:57:04.498Z,9.63
2024-01-29T18:59:32.812Z,9.50
2024-01-29T19:02:00.287Z,9.80
2024-01-29T19:05:23.826Z,9.80
2024-01-29T19:07:53.373Z,10.02
2024-01-29T19:10:20.748Z,9.30
2024-01-29T19:12:48.156Z,9.85
2024-01-29T19:15:15.425Z,8.25
2024-01-29T19:17:45.204Z,9.88
2024-01-29T19:20:12.741Z,8.93
2024-01-29T19:22:40.095Z,8.85
2024-01-29T19:25:12.065Z,8.88
2024-01-29T19:28:11.850Z,8.73
2024-01-29T19:30:39.812Z,8.57
2024-01-29T19:33:08.187Z,7.63
2024-01-29T19:35:38.818Z,8.27
2024-01-29T19:38:09.268Z,8.43
2024-01-29T19:43:06.391Z,8.00
2024-01-29T19:45:34.936Z,8.30
2024-01-29T19:48:02.505Z,8.25
2024-01-29T19:50:32.138Z,8.38
2024-01-29T19:52:59.568Z,9.18
2024-01-29T19:55:26.689Z,7.85
2024-01-29T19:57:56.920Z,9.23
2024-01-29T20:00:27.051Z,7.68
2024-01-29T20:05:23.021Z,8.02
2024-01-29T20:07:50.434Z,7.88
2024-01-29T20:10:18.425Z,8.00
2024-01-29T20:12:51.533Z,7.63
2024-01-29T20:15:19.616Z,7.60
2024-01-29T20:17:47.223Z,7.30
2024-01-29T20:20:14.828Z,8.07
2024-01-29T20:22:42.406Z,7.50
2024-01-29T20:27:51.312Z,7.78
2024-01-29T20:30:22.031Z,7.38
2024-01-29T20:32:51.793Z,6.82
2024-01-29T20:35:24.627Z,7.40
2024-01-29T20:37:53.396Z,7.57
2024-01-29T20:40:21.653Z,7.70
2024-01-29T20:42:48.947Z,6.40
2024-01-29T20:45:16.443Z,6.55
2024-01-29T20:47:44.149Z,7.25
2024-01-29T20:50:11.501Z,6.97
2024-01-29T20:52:38.808Z,6.57
2024-01-29T20:55:14.099Z,7.28
2024-01-29T20:57:44.870Z,6.18
2024-01-29T21:00:19.108Z,6.70
2024-01-29T21:03:02.179Z,5.75
2024-01-29T21:05:31.852Z,6.25
2024-01-29T21:08:04.001Z,6.60
2024-01-29T21:10:31.302Z,6.38
2024-01-29T21:13:01.384Z,6.90
2024-01-29T21:15:31.442Z,7.00
2024-01-29T21:18:00.928Z,6.40
2024-01-29T21:20:28.886Z,6.53
2024-01-29T21:22:55.989Z,6.22
2024-01-29T21:25:23.387Z,6.90
2024-01-29T21:27:50.671Z,6.75
2024-01-29T21:30:23.481Z,7.30
2024-01-29T21:32:50.766Z,6.13
2024-01-29T21:35:18.240Z,6.43
2024-01-29T21:37:45.364Z,6.85
2024-01-29T21:40:12.736Z,6.63
2024-01-29T21:42:39.918Z,6.57
2024-01-29T21:45:08.732Z,7.20
2024-01-29T21:47:35.823Z,6.50
2024-01-29T21:50:04.933Z,6.40
2024-01-29T21:52:32.221Z,7.22
2024-01-29T21:55:06.140Z,6.10
2024-01-29T21:57:37.101Z,7.05
2024-01-29T22:00:06.101Z,6.75
2024-01-29T22:02:36.467Z,6.63
2024-01-29T22:05:04.017Z,6.65
2024-01-29T22:07:31.336Z,6.88
2024-01-29T22:09:59.176Z,6.20
2024-01-29T22:12:27.932Z,7.28
2024-01-29T22:14:55.132Z,6.40
2024-01-29T22:17:22.385Z,6.55
2024-01-29T22:19:50.063Z,6.80
2024-01-29T22:22:17.356Z,7.10
2024-01-29T22:24:45.077Z,6.70
2024-01-29T22:27:12.156Z,6.43
2024-01-29T22:29:40.927Z,6.85
2024-01-29T22:32:08.067Z,7.03
2024-01-29T22:34:35.286Z,6.70
2024-01-29T22:37:02.583Z,6.90
2024-01-29T22:39:29.851Z,7.10
2024-01-29T22:41:57.088Z,6.72
2024-01-29T22:44:24.482Z,6.70
2024-01-29T22:46:51.597Z,6.43
2024-01-29T22:49:19.318Z,6.70
2024-01-29T22:51:46.721Z,6.10
2024-01-29T22:54:14.057Z,6.97
2024-01-29T22:56:41.555Z,6.20
2024-01-29T22:59:09.295Z,6.75
2024-01-29T23:01:36.478Z,6.70
2024-01-29T23:04:03.813Z,6.07
2024-01-29T23:06:31.038Z,6.55
2024-01-29T23:08:58.166Z,5.88
2024-01-29T23:11:25.332Z,6.28
2024-01-29T23:13:52.490Z,6.63
2024-01-29T23:16:19.858Z,6.32
2024-01-29T23:18:48.417Z,5.78
2024-01-29T23:21:15.644Z,6.18
2024-01-29T23:23:43.198Z,7.20
2024-01-29T23:26:10.356Z,6.55
2024-01-29T23:28:37.858Z,6.15
2024-01-29T23:31:05.137Z,6.25
2024-01-29T23:33:32.411Z,6.43
2024-01-29T23:35:59.668Z,7.10
2024-01-29T23:38:26.748Z,6.07
2024-01-29T23:40:53.841Z,6.70
2024-01-29T23:43:21.096Z,6.53
2024-01-29T23:45:48.399Z,6.20
2024-01-29T23:48:15.734Z,6.28
2024-01-29T23:50:43.125Z,5.63
2024-01-29T23:53:10.264Z,6.05
2024-01-29T23:55:37.485Z,5.85
2024-01-29T23:58:07.924Z,6.78
